Stations météo

réclame
Mon MeteoGroup
Reinosa, Espagne (8032): Température de l'air & dewpoint: 14.06.2018 09:00:00 - 20.06.2018 09:00:00 (CEST)Reinosa, Espagne (8032): Vitesse du vent & gusts: 14.06.2018 09:00:00 - 20.06.2018 09:00:00 (CEST)Reinosa, Espagne (8032): Direction du vent: 14.06.2018 09:00:00 - 20.06.2018 09:00:00 (CEST)Reinosa, Espagne (8032): Quantités de précipitations: 14.06.2018 09:00:00 - 20.06.2018 09:00:00 (CEST)
Date & Time tt [°C] td [°C] ff [km/h] ff [knt] fx [km/h] fx [knt] dd rr [mm]
20.06.2018 09:00:00 - - - - - - - -
20.06.2018 08:00:00 11,0 9,8 0 0 5 3 N -
20.06.2018 07:00:00 8,1 6,8 1 1 5 3 NW 0,0
20.06.2018 06:00:00 8,7 7,6 3 2 7 4 W 0,0
20.06.2018 05:00:00 9,4 8,4 3 1 6 4 WSW 0,0
20.06.2018 04:00:00 8,8 7,7 3 1 5 3 WNW 0,0
20.06.2018 03:00:00 11,4 10,3 0 0 4 2 SSW 0,0
20.06.2018 02:00:00 10,6 9,6 2 1 4 2 NNW -
20.06.2018 01:00:00 13,1 12,0 0 0 5 3 S 0,0
20.06.2018 00:00:00 14,1 13,0 0 0 3 1 WSW 0,0
19.06.2018 23:00:00 14,9 13,8 1 0 7 4 SE 0,0
19.06.2018 22:00:00 15,9 13,9 5 3 11 6 E 0,0
19.06.2018 21:00:00 17,8 14,5 5 3 13 7 E 0,0
19.06.2018 20:00:00 - - 0 0 13 7 N -
19.06.2018 19:00:00 21,2 12,1 10 5 18 10 E 0,0
19.06.2018 18:00:00 21,9 11,9 8 5 18 10 ENE 0,0
19.06.2018 17:00:00 21,2 10,6 10 6 17 9 E 0,0
19.06.2018 16:00:00 20,8 9,7 7 4 19 10 ENE 0,0
19.06.2018 15:00:00 19,6 10,9 8 5 18 10 E 0,0
19.06.2018 14:00:00 18,7 10,5 7 4 23 12 E -
19.06.2018 13:00:00 16,7 9,2 11 6 23 12 E 0,0
19.06.2018 12:00:00 15,6 8,8 11 6 22 12 E 0,0
19.06.2018 11:00:00 15,1 11,1 8 5 19 10 ENE 0,0
19.06.2018 10:00:00 13,0 11,1 10 5 15 8 ENE 0,0
19.06.2018 09:00:00 12,2 10,6 3 2 7 4 NNW 0,0
19.06.2018 08:00:00 11,5 9,9 1 1 7 4 NNW -
19.06.2018 07:00:00 11,5 9,9 3 1 6 3 SW 0,0
19.06.2018 06:00:00 11,8 10,5 2 1 7 4 SSW 0,0
19.06.2018 05:00:00 11,6 10,5 1 1 6 3 ESE 0,0
19.06.2018 04:00:00 11,6 10,5 1 1 5 3 SSW 0,0
19.06.2018 03:00:00 11,2 10,0 1 1 9 5 NE 0,0
19.06.2018 02:00:00 11,3 10,2 1 1 8 4 SSE -
19.06.2018 01:00:00 - - - - - - - -
19.06.2018 00:00:00 12,0 10,9 10 5 22 12 ENE 0,0
18.06.2018 23:00:00 12,4 11,3 11 6 18 10 E 0,0
18.06.2018 22:00:00 13,1 11,8 9 5 19 10 ESE 0,0
18.06.2018 21:00:00 14,6 12,6 9 5 21 12 E 0,0
18.06.2018 20:00:00 15,3 12,7 7 4 19 10 E -
18.06.2018 19:00:00 16,4 12,5 9 5 27 15 ENE 0,0
18.06.2018 18:00:00 16,8 11,9 12 7 29 16 E 0,0
18.06.2018 17:00:00 17,8 12,8 13 7 29 16 ENE 0,0
18.06.2018 16:00:00 18,9 13,9 15 8 36 20 NE 0,0
18.06.2018 15:00:00 18,7 13,6 17 9 35 19 ENE 0,0
18.06.2018 14:00:00 17,7 13,1 19 10 36 19 NE -
18.06.2018 13:00:00 18,7 12,8 14 8 30 16 NE 0,0
18.06.2018 12:00:00 17,8 10,9 17 9 32 18 N 0,0
18.06.2018 11:00:00 16,7 10,3 16 9 33 18 N 0,0
18.06.2018 10:00:00 15,6 9,4 11 6 26 14 N 0,0
18.06.2018 09:00:00 13,1 8,9 6 3 13 7 ESE 0,0
18.06.2018 08:00:00 9,1 8,0 1 0 5 3 WSW -
18.06.2018 07:00:00 5,9 4,8 3 1 4 2 WSW 0,0
18.06.2018 06:00:00 6,6 5,6 1 1 6 3 SSW 0,0
18.06.2018 05:00:00 6,0 5,0 4 2 6 4 WNW 0,0
18.06.2018 04:00:00 7,3 6,2 0 0 5 3 N 0,0
18.06.2018 03:00:00 8,4 7,3 3 2 7 4 S 0,0
18.06.2018 02:00:00 7,8 6,7 3 1 6 3 WNW -
18.06.2018 01:00:00 9,7 8,7 0 0 6 4 SSE 0,0
18.06.2018 00:00:00 9,9 8,4 4 2 16 9 N 0,0
17.06.2018 23:00:00 12,0 9,7 3 1 11 6 E 0,0
17.06.2018 22:00:00 13,4 10,2 9 5 21 11 ENE 0,0
17.06.2018 21:00:00 - - 0 0 0 0 N 0,0
17.06.2018 20:00:00 - - 0 0 0 0 N -
17.06.2018 19:00:00 - - 4 2 37 20 N 0,0
17.06.2018 18:00:00 20,3 5,5 21 11 39 21 N 0,0
17.06.2018 17:00:00 22,0 6,2 11 6 36 19 N 0,0
17.06.2018 16:00:00 21,4 4,8 13 7 34 19 NNE 0,0
17.06.2018 15:00:00 20,3 8,0 7 4 27 15 NE 0,0
17.06.2018 14:00:00 17,6 10,2 18 10 27 14 E -
17.06.2018 13:00:00 17,2 10,3 16 9 27 15 ENE 0,0
17.06.2018 12:00:00 15,9 9,6 14 8 25 13 ENE 0,0
17.06.2018 11:00:00 14,0 8,8 11 6 20 11 E 0,0
17.06.2018 10:00:00 13,4 9,7 5 3 21 11 N 0,0
17.06.2018 09:00:00 11,7 9,9 9 5 13 7 E 0,0
17.06.2018 08:00:00 11,3 9,6 5 3 10 5 WSW -
17.06.2018 07:00:00 11,1 9,8 6 3 9 5 E 0,0
17.06.2018 06:00:00 11,2 10,0 0 0 9 5 E 0,0
17.06.2018 05:00:00 11,2 10,0 3 2 8 5 ESE 0,0
17.06.2018 04:00:00 10,9 9,8 1 0 10 5 E 0,0
17.06.2018 03:00:00 10,6 9,6 6 4 9 5 E 0,0
17.06.2018 02:00:00 10,8 9,6 2 1 15 8 E -
17.06.2018 01:00:00 10,7 9,4 9 5 19 11 ENE 0,0
17.06.2018 00:00:00 11,2 9,9 8 4 16 9 E 0,0
16.06.2018 23:00:00 11,6 9,8 4 2 20 11 ESE 0,0
16.06.2018 22:00:00 12,1 8,8 9 5 18 10 ENE 0,0
16.06.2018 21:00:00 14,6 9,8 7 4 14 8 ENE 0,0
16.06.2018 20:00:00 - - 0 0 26 14 N -
16.06.2018 19:00:00 18,0 10,2 10 6 27 15 NE 0,0
16.06.2018 18:00:00 17,7 10,5 16 9 32 17 NE 0,0
16.06.2018 17:00:00 19,2 11,8 13 7 29 16 ENE 0,0
16.06.2018 16:00:00 17,6 10,8 18 10 33 18 E 0,0
16.06.2018 15:00:00 17,4 10,0 19 11 33 18 E 0,0
16.06.2018 14:00:00 17,2 10,0 19 10 30 16 E -
16.06.2018 13:00:00 16,0 9,9 15 8 25 14 E 0,0
16.06.2018 12:00:00 15,2 9,3 11 6 21 12 ENE 0,0
16.06.2018 11:00:00 13,7 9,2 8 5 15 8 E 0,0
16.06.2018 10:00:00 11,6 9,2 6 3 11 6 E 0,0
16.06.2018 09:00:00 9,5 8,1 0 0 8 4 SW 0,0
16.06.2018 08:00:00 6,7 5,8 4 2 9 5 W -
16.06.2018 07:00:00 5,4 4,5 4 2 8 5 WSW 0,0
16.06.2018 06:00:00 6,3 5,5 3 1 6 3 WSW 0,0
16.06.2018 05:00:00 7,6 6,7 4 2 7 4 NW 0,0
16.06.2018 04:00:00 9,4 8,5 2 1 10 5 SSW 0,0
16.06.2018 03:00:00 10,3 9,4 5 3 8 5 W 0,0
16.06.2018 02:00:00 10,6 9,7 0 0 4 2 W -
16.06.2018 01:00:00 11,0 10,0 2 1 11 6 ENE 0,0
16.06.2018 00:00:00 11,8 10,6 2 1 16 9 E 0,0
15.06.2018 23:00:00 12,1 11,0 9 5 19 11 NE 0,0
15.06.2018 22:00:00 12,8 11,6 9 5 18 10 NE 0,0
15.06.2018 21:00:00 13,2 11,8 12 7 20 11 E 0,0
15.06.2018 20:00:00 14,6 12,3 9 5 21 11 ENE -
15.06.2018 19:00:00 15,0 12,3 9 5 20 11 NNE 0,0
15.06.2018 18:00:00 15,6 13,0 8 5 21 12 ENE 0,0
15.06.2018 17:00:00 16,3 13,1 14 8 26 14 NNW 0,0
15.06.2018 16:00:00 16,4 12,7 7 4 23 12 N 0,0
15.06.2018 15:00:00 16,2 12,1 16 8 29 16 NNW 0,0
15.06.2018 14:00:00 16,6 11,8 23 13 37 20 E -
15.06.2018 13:00:00 17,1 11,6 14 8 27 15 E 0,0
15.06.2018 12:00:00 16,3 11,2 16 9 24 13 E 0,0
15.06.2018 11:00:00 14,9 10,6 6 3 13 7 ENE 0,0
15.06.2018 10:00:00 13,4 9,3 4 2 9 5 E 0,0
15.06.2018 09:00:00 10,7 9,3 1 1 5 3 W 0,0
15.06.2018 08:00:00 8,0 7,1 1 1 5 3 NW -
15.06.2018 07:00:00 6,3 5,5 1 1 4 2 SSW 0,0
15.06.2018 06:00:00 6,2 5,3 0 0 5 3 W 0,0
15.06.2018 05:00:00 6,8 5,9 0 0 4 2 WNW 0,0
15.06.2018 04:00:00 7,3 6,4 2 1 4 2 W 0,0
15.06.2018 03:00:00 8,3 7,3 1 1 5 3 WNW 0,0
15.06.2018 02:00:00 8,9 7,7 4 2 6 3 WSW -
15.06.2018 01:00:00 10,3 9,0 3 1 7 4 SSE 0,0
15.06.2018 00:00:00 10,8 9,4 3 1 9 5 SSW 0,0
14.06.2018 23:00:00 12,3 10,4 6 4 9 5 S 0,0
14.06.2018 22:00:00 13,2 9,3 3 2 18 10 S 0,0
14.06.2018 21:00:00 15,2 9,0 12 6 24 13 ENE 0,0
14.06.2018 20:00:00 - - 0 0 15 8 N -
14.06.2018 19:00:00 18,7 9,4 9 5 25 13 ENE 0,0
14.06.2018 18:00:00 19,7 9,6 11 6 29 16 NE 0,0
14.06.2018 17:00:00 18,9 11,4 16 9 29 16 NE 0,0
14.06.2018 16:00:00 18,5 10,9 15 8 31 17 ENE 0,0
14.06.2018 15:00:00 17,6 9,9 17 9 29 16 ENE 0,0
14.06.2018 14:00:00 17,9 10,0 13 7 31 17 ENE -
14.06.2018 13:00:00 17,3 10,2 6 4 23 13 N 0,0
14.06.2018 12:00:00 15,7 9,3 11 6 23 13 ENE 0,0
14.06.2018 11:00:00 13,2 8,5 8 5 22 12 ESE 0,0
14.06.2018 10:00:00 11,6 8,1 5 3 10 5 E 0,0
14.06.2018 09:00:00 9,6 7,4 2 1 5 3 SSE 0,0

tt = Température de l'air
td = dewpoint
ff = Vitesse du vent
fx = gusts
dd = Direction du vent
rr = Quantités de précipitations

stations d'obs. à proximité